sensor_id;sensor_type;location;lat;lon;timestamp;pressure;altitude;pressure_sealevel;temperature;humidity
67377;BME280;54261;46.086;6.588;2023-04-05T00:00:44;92535.63;;;0.06;38.38
67377;BME280;54261;46.086;6.588;2023-04-05T00:05:46;92528.91;;;-0.34;39.51
67377;BME280;54261;46.086;6.588;2023-04-05T00:10:51;92526.97;;;0.11;38.36
67377;BME280;54261;46.086;6.588;2023-04-05T00:15:52;92538.97;;;-0.04;38.89
67377;BME280;54261;46.086;6.588;2023-04-05T00:20:58;92525.25;;;0.27;38.64
67377;BME280;54261;46.086;6.588;2023-04-05T00:26:00;92523.06;;;-0.42;39.67
67377;BME280;54261;46.086;6.588;2023-04-05T00:31:03;92536.91;;;0.64;39.07
67377;BME280;54261;46.086;6.588;2023-04-05T00:41:12;92536.09;;;1.01;38.54
67377;BME280;54261;46.086;6.588;2023-04-05T00:46:14;92530.31;;;1.78;36.79
67377;BME280;54261;46.086;6.588;2023-04-05T00:51:17;92517.38;;;1.97;35.93
67377;BME280;54261;46.086;6.588;2023-04-05T00:56:21;92504.19;;;2.23;35.14
67377;BME280;54261;46.086;6.588;2023-04-05T01:01:25;92509.69;;;2.94;34.61
67377;BME280;54261;46.086;6.588;2023-04-05T01:11:34;92508.13;;;2.05;34.69
67377;BME280;54261;46.086;6.588;2023-04-05T01:16:38;92509.69;;;1.06;36.22
67377;BME280;54261;46.086;6.588;2023-04-05T01:27:35;92499.66;;;2.81;34.36
67377;BME280;54261;46.086;6.588;2023-04-05T01:38:03;92501.00;;;2.26;34.23
67377;BME280;54261;46.086;6.588;2023-04-05T01:43:15;92466.97;;;3.01;33.05
67377;BME280;54261;46.086;6.588;2023-04-05T01:48:17;92504.84;;;1.46;35.47
67377;BME280;54261;46.086;6.588;2023-04-05T01:53:19;92483.69;;;1.46;34.92
67377;BME280;54261;46.086;6.588;2023-04-05T01:58:22;92498.28;;;1.80;35.45
67377;BME280;54261;46.086;6.588;2023-04-05T02:03:24;92475.25;;;1.70;35.28
67377;BME280;54261;46.086;6.588;2023-04-05T02:08:26;92489.34;;;2.43;34.55
67377;BME280;54261;46.086;6.588;2023-04-05T02:13:28;92489.13;;;1.18;36.02
67377;BME280;54261;46.086;6.588;2023-04-05T02:18:31;92458.34;;;2.07;34.82
67377;BME280;54261;46.086;6.588;2023-04-05T02:23:33;92465.97;;;1.62;34.63
67377;BME280;54261;46.086;6.588;2023-04-05T02:28:35;92503.66;;;0.68;36.68
67377;BME280;54261;46.086;6.588;2023-04-05T02:33:38;92496.72;;;-0.37;38.61
67377;BME280;54261;46.086;6.588;2023-04-05T02:38:40;92498.25;;;-0.13;38.96
67377;BME280;54261;46.086;6.588;2023-04-05T02:43:41;92483.19;;;0.15;37.75
67377;BME280;54261;46.086;6.588;2023-04-05T02:48:44;92486.66;;;1.01;37.09
67377;BME280;54261;46.086;6.588;2023-04-05T02:53:49;92496.66;;;1.58;36.70
67377;BME280;54261;46.086;6.588;2023-04-05T02:58:51;92494.09;;;0.24;37.14
67377;BME280;54261;46.086;6.588;2023-04-05T03:03:57;92494.84;;;-0.14;39.05
67377;BME280;54261;46.086;6.588;2023-04-05T03:08:59;92508.50;;;0.81;37.37
67377;BME280;54261;46.086;6.588;2023-04-05T03:14:02;92483.72;;;-0.16;38.22
67377;BME280;54261;46.086;6.588;2023-04-05T03:19:15;92499.69;;;1.24;36.42
67377;BME280;54261;46.086;6.588;2023-04-05T03:24:20;92492.13;;;1.48;36.19
67377;BME280;54261;46.086;6.588;2023-04-05T03:29:22;92492.72;;;-0.12;39.02
67377;BME280;54261;46.086;6.588;2023-04-05T03:34:26;92492.03;;;-0.57;39.77
67377;BME280;54261;46.086;6.588;2023-04-05T03:39:33;92489.56;;;1.00;37.56
67377;BME280;54261;46.086;6.588;2023-04-05T03:44:35;92499.28;;;0.89;38.35
67377;BME280;54261;46.086;6.588;2023-04-05T03:49:37;92498.22;;;0.85;37.85
67377;BME280;54261;46.086;6.588;2023-04-05T03:54:39;92487.84;;;1.31;36.98
67377;BME280;54261;46.086;6.588;2023-04-05T03:59:42;92479.28;;;1.98;36.30
67377;BME280;54261;46.086;6.588;2023-04-05T04:04:44;92459.06;;;1.51;36.31
67377;BME280;54261;46.086;6.588;2023-04-05T04:09:47;92462.06;;;2.01;34.87
67377;BME280;54261;46.086;6.588;2023-04-05T04:14:49;92473.22;;;2.55;34.57
67377;BME280;54261;46.086;6.588;2023-04-05T04:20:10;92461.00;;;2.69;34.56
67377;BME280;54261;46.086;6.588;2023-04-05T04:25:25;92447.75;;;2.38;34.41
67377;BME280;54261;46.086;6.588;2023-04-05T04:30:51;92460.75;;;2.45;35.08
67377;BME280;54261;46.086;6.588;2023-04-05T04:36:10;92445.88;;;2.65;34.72
67377;BME280;54261;46.086;6.588;2023-04-05T04:41:43;92456.75;;;2.37;33.75
67377;BME280;54261;46.086;6.588;2023-04-05T04:47:06;92452.25;;;1.91;35.11
67377;BME280;54261;46.086;6.588;2023-04-05T04:52:23;92468.69;;;2.29;34.46
67377;BME280;54261;46.086;6.588;2023-04-05T04:57:24;92464.72;;;2.58;34.78
67377;BME280;54261;46.086;6.588;2023-04-05T05:02:28;92478.38;;;1.51;35.29
67377;BME280;54261;46.086;6.588;2023-04-05T05:07:32;92475.81;;;1.93;34.70
67377;BME280;54261;46.086;6.588;2023-04-05T05:12:33;92470.28;;;2.36;34.26
67377;BME280;54261;46.086;6.588;2023-04-05T05:17:35;92455.72;;;2.18;34.47
67377;BME280;54261;46.086;6.588;2023-04-05T05:22:38;92456.34;;;1.25;34.65
67377;BME280;54261;46.086;6.588;2023-04-05T05:27:41;92477.16;;;2.00;34.80
67377;BME280;54261;46.086;6.588;2023-04-05T05:32:43;92475.78;;;1.72;34.73
67377;BME280;54261;46.086;6.588;2023-04-05T05:37:45;92488.91;;;0.72;36.67
67377;BME280;54261;46.086;6.588;2023-04-05T05:42:47;92503.06;;;1.83;35.64
67377;BME280;54261;46.086;6.588;2023-04-05T05:47:48;92497.28;;;2.12;35.30
67377;BME280;54261;46.086;6.588;2023-04-05T05:52:51;92498.84;;;1.82;34.68
67377;BME280;54261;46.086;6.588;2023-04-05T05:57:53;92504.13;;;1.92;35.30
67377;BME280;54261;46.086;6.588;2023-04-05T06:02:54;92512.63;;;1.99;35.17
67377;BME280;54261;46.086;6.588;2023-04-05T06:07:56;92514.97;;;1.75;35.64
67377;BME280;54261;46.086;6.588;2023-04-05T06:12:58;92524.66;;;1.49;36.01
67377;BME280;54261;46.086;6.588;2023-04-05T06:18:00;92513.16;;;2.07;35.57
67377;BME280;54261;46.086;6.588;2023-04-05T06:23:02;92512.06;;;0.59;36.84
67377;BME280;54261;46.086;6.588;2023-04-05T06:28:06;92520.69;;;-0.88;40.37
67377;BME280;54261;46.086;6.588;2023-04-05T06:33:08;92522.25;;;-0.64;40.79
67377;BME280;54261;46.086;6.588;2023-04-05T06:38:09;92523.41;;;1.03;38.47
67377;BME280;54261;46.086;6.588;2023-04-05T06:43:11;92523.16;;;-0.04;38.83
67377;BME280;54261;46.086;6.588;2023-04-05T06:48:13;92514.31;;;-1.31;41.80
67377;BME280;54261;46.086;6.588;2023-04-05T06:53:15;92519.31;;;-0.68;40.92
67377;BME280;54261;46.086;6.588;2023-04-05T06:58:19;92524.09;;;0.12;40.14
67377;BME280;54261;46.086;6.588;2023-04-05T07:03:21;92517.72;;;-0.91;41.54
67377;BME280;54261;46.086;6.588;2023-04-05T07:08:25;92525.81;;;0.29;40.15
67377;BME280;54261;46.086;6.588;2023-04-05T07:13:28;92529.47;;;0.98;38.60
67377;BME280;54261;46.086;6.588;2023-04-05T07:18:30;92527.59;;;1.52;38.56
67377;BME280;54261;46.086;6.588;2023-04-05T07:23:32;92528.94;;;1.65;36.96
67377;BME280;54261;46.086;6.588;2023-04-05T07:28:34;92530.16;;;0.78;36.77
67377;BME280;54261;46.086;6.588;2023-04-05T07:33:36;92534.69;;;0.88;38.63
67377;BME280;54261;46.086;6.588;2023-04-05T07:38:38;92536.03;;;-0.35;40.88
67377;BME280;54261;46.086;6.588;2023-04-05T07:43:40;92541.78;;;-0.16;39.57
67377;BME280;54261;46.086;6.588;2023-04-05T07:48:42;92529.22;;;0.57;39.20
67377;BME280;54261;46.086;6.588;2023-04-05T07:53:44;92535.19;;;-0.13;41.66
67377;BME280;54261;46.086;6.588;2023-04-05T07:58:46;92523.81;;;0.46;40.40
67377;BME280;54261;46.086;6.588;2023-04-05T08:03:48;92531.00;;;0.18;40.38
67377;BME280;54261;46.086;6.588;2023-04-05T08:08:51;92512.41;;;0.36;40.98
67377;BME280;54261;46.086;6.588;2023-04-05T08:13:52;92515.25;;;-2.81;47.00
67377;BME280;54261;46.086;6.588;2023-04-05T08:18:55;92537.38;;;-3.42;48.86
67377;BME280;54261;46.086;6.588;2023-04-05T08:23:56;92541.47;;;-1.82;45.66
67377;BME280;54261;46.086;6.588;2023-04-05T08:28:59;92536.13;;;-0.25;43.08
67377;BME280;54261;46.086;6.588;2023-04-05T08:34:01;92543.91;;;2.34;40.21
67377;BME280;54261;46.086;6.588;2023-04-05T08:39:03;92549.66;;;3.29;38.39
67377;BME280;54261;46.086;6.588;2023-04-05T08:44:08;92534.72;;;-0.10;42.24
67377;BME280;54261;46.086;6.588;2023-04-05T08:49:10;92539.72;;;-0.36;42.68
67377;BME280;54261;46.086;6.588;2023-04-05T08:54:13;92517.81;;;-4.17;52.76
67377;BME280;54261;46.086;6.588;2023-04-05T08:59:16;92527.78;;;-3.60;51.07
67377;BME280;54261;46.086;6.588;2023-04-05T09:04:21;92523.47;;;-3.42;50.51
67377;BME280;54261;46.086;6.588;2023-04-05T09:09:31;92539.03;;;0.34;43.51
67377;BME280;54261;46.086;6.588;2023-04-05T09:14:37;92537.09;;;0.95;41.54
67377;BME280;54261;46.086;6.588;2023-04-05T09:19:39;92537.78;;;-1.30;46.27
67377;BME280;54261;46.086;6.588;2023-04-05T09:24:42;92533.78;;;-2.30;48.92
67377;BME280;54261;46.086;6.588;2023-04-05T09:29:47;92531.09;;;-2.64;50.45
67377;BME280;54261;46.086;6.588;2023-04-05T09:34:52;92511.94;;;-3.77;53.00
67377;BME280;54261;46.086;6.588;2023-04-05T09:40:03;92537.59;;;-0.84;48.52
67377;BME280;54261;46.086;6.588;2023-04-05T09:45:06;92522.97;;;2.27;41.50
67377;BME280;54261;46.086;6.588;2023-04-05T09:50:19;92530.47;;;4.13;36.58
67377;BME280;54261;46.086;6.588;2023-04-05T09:55:26;92527.78;;;2.61;41.42
67377;BME280;54261;46.086;6.588;2023-04-05T10:00:29;92501.91;;;-3.68;50.85
67377;BME280;54261;46.086;6.588;2023-04-05T10:05:32;92538.13;;;-2.53;49.87
67377;BME280;54261;46.086;6.588;2023-04-05T10:10:39;92518.09;;;0.22;46.08
67377;BME280;54261;46.086;6.588;2023-04-05T10:15:49;92522.41;;;-1.72;47.44
67377;BME280;54261;46.086;6.588;2023-04-05T10:20:53;92521.47;;;1.41;42.92
67377;BME280;54261;46.086;6.588;2023-04-05T10:31:49;92508.38;;;2.86;39.30
67377;BME280;54261;46.086;6.588;2023-04-05T10:36:59;92513.69;;;2.14;38.54
67377;BME280;54261;46.086;6.588;2023-04-05T10:42:26;92510.19;;;3.07;40.87
67377;BME280;54261;46.086;6.588;2023-04-05T10:47:30;92506.78;;;0.59;43.86
67377;BME280;54261;46.086;6.588;2023-04-05T10:52:33;92500.84;;;-1.35;47.02
67377;BME280;54261;46.086;6.588;2023-04-05T10:57:36;92503.59;;;-0.08;44.74
67377;BME280;54261;46.086;6.588;2023-04-05T11:02:38;92504.09;;;-1.28;47.58
67377;BME280;54261;46.086;6.588;2023-04-05T11:07:44;92502.69;;;1.43;41.80
67377;BME280;54261;46.086;6.588;2023-04-05T11:23:20;92498.44;;;1.42;41.48
67377;BME280;54261;46.086;6.588;2023-04-05T11:28:30;92490.75;;;1.30;40.24
67377;BME280;54261;46.086;6.588;2023-04-05T11:33:53;92479.78;;;-0.13;43.61
67377;BME280;54261;46.086;6.588;2023-04-05T11:44:24;92461.75;;;1.77;39.89
67377;BME280;54261;46.086;6.588;2023-04-05T11:49:27;92477.81;;;3.76;37.56
67377;BME280;54261;46.086;6.588;2023-04-05T11:54:32;92465.50;;;2.17;38.50
67377;BME280;54261;46.086;6.588;2023-04-05T11:59:34;92489.69;;;1.36;41.68
67377;BME280;54261;46.086;6.588;2023-04-05T12:04:37;92488.59;;;1.22;41.26
67377;BME280;54261;46.086;6.588;2023-04-05T12:09:59;92485.09;;;2.00;39.87
67377;BME280;54261;46.086;6.588;2023-04-05T12:15:06;92487.16;;;1.78;39.40
67377;BME280;54261;46.086;6.588;2023-04-05T12:20:14;92486.06;;;1.63;38.33
67377;BME280;54261;46.086;6.588;2023-04-05T12:25:17;92478.47;;;2.08;38.56
67377;BME280;54261;46.086;6.588;2023-04-05T12:30:22;92472.09;;;2.66;38.47
67377;BME280;54261;46.086;6.588;2023-04-05T12:35:28;92472.44;;;0.59;40.94
67377;BME280;54261;46.086;6.588;2023-04-05T12:40:39;92474.13;;;1.40;38.33
67377;BME280;54261;46.086;6.588;2023-04-05T12:45:41;92471.28;;;1.72;36.66
67377;BME280;54261;46.086;6.588;2023-04-05T12:50:46;92467.91;;;1.08;38.60
67377;BME280;54261;46.086;6.588;2023-04-05T12:55:52;92468.69;;;2.29;37.30
67377;BME280;54261;46.086;6.588;2023-04-05T13:00:54;92468.63;;;1.78;37.84
67377;BME280;54261;46.086;6.588;2023-04-05T13:05:56;92450.97;;;4.22;31.50
67377;BME280;54261;46.086;6.588;2023-04-05T13:10:59;92437.44;;;2.42;35.10
67377;BME280;54261;46.086;6.588;2023-04-05T13:16:01;92450.50;;;3.14;33.71
67377;BME280;54261;46.086;6.588;2023-04-05T13:21:03;92453.38;;;4.53;32.02
67377;BME280;54261;46.086;6.588;2023-04-05T13:26:08;92444.84;;;3.82;32.25
67377;BME280;54261;46.086;6.588;2023-04-05T13:31:10;92449.91;;;3.28;31.49
67377;BME280;54261;46.086;6.588;2023-04-05T13:36:16;92442.75;;;3.79;29.75
67377;BME280;54261;46.086;6.588;2023-04-05T13:41:18;92454.19;;;3.79;28.26
67377;BME280;54261;46.086;6.588;2023-04-05T13:46:20;92438.50;;;2.36;31.53
67377;BME280;54261;46.086;6.588;2023-04-05T13:51:22;92440.84;;;2.53;32.17
67377;BME280;54261;46.086;6.588;2023-04-05T13:56:24;92440.13;;;4.48;29.81
67377;BME280;54261;46.086;6.588;2023-04-05T14:01:26;92446.69;;;4.26;28.35
67377;BME280;54261;46.086;6.588;2023-04-05T14:06:28;92441.47;;;4.99;26.28
67377;BME280;54261;46.086;6.588;2023-04-05T14:11:34;92424.00;;;4.05;29.32
67377;BME280;54261;46.086;6.588;2023-04-05T14:16:36;92429.16;;;4.25;25.08
67377;BME280;54261;46.086;6.588;2023-04-05T14:21:38;92421.84;;;4.12;24.80
67377;BME280;54261;46.086;6.588;2023-04-05T14:26:41;92428.28;;;5.95;23.68
67377;BME280;54261;46.086;6.588;2023-04-05T14:31:50;92420.41;;;6.57;21.42
67377;BME280;54261;46.086;6.588;2023-04-05T14:36:52;92422.38;;;3.69;24.69
67377;BME280;54261;46.086;6.588;2023-04-05T14:41:54;92423.47;;;5.59;21.92
67377;BME280;54261;46.086;6.588;2023-04-05T14:46:56;92430.03;;;6.72;22.69
67377;BME280;54261;46.086;6.588;2023-04-05T14:51:58;92421.78;;;7.80;21.05
67377;BME280;54261;46.086;6.588;2023-04-05T14:57:00;92407.28;;;6.27;22.57
67377;BME280;54261;46.086;6.588;2023-04-05T15:02:02;92420.88;;;7.20;22.97
67377;BME280;54261;46.086;6.588;2023-04-05T15:07:04;92381.38;;;7.82;20.63
67377;BME280;54261;46.086;6.588;2023-04-05T15:12:06;92392.59;;;6.91;22.36
67377;BME280;54261;46.086;6.588;2023-04-05T15:17:08;92400.69;;;7.92;20.71
67377;BME280;54261;46.086;6.588;2023-04-05T15:22:10;92409.25;;;8.81;21.61
67377;BME280;54261;46.086;6.588;2023-04-05T15:27:12;92392.91;;;8.82;21.42
67377;BME280;54261;46.086;6.588;2023-04-05T15:32:14;92410.47;;;5.96;22.79
67377;BME280;54261;46.086;6.588;2023-04-05T15:37:16;92378.94;;;5.02;23.67
67377;BME280;54261;46.086;6.588;2023-04-05T15:42:19;92387.16;;;7.10;22.29
67377;BME280;54261;46.086;6.588;2023-04-05T15:47:22;92401.75;;;9.32;20.66
67377;BME280;54261;46.086;6.588;2023-04-05T15:52:24;92399.34;;;8.49;21.41
67377;BME280;54261;46.086;6.588;2023-04-05T15:57:26;92387.03;;;8.80;22.89
67377;BME280;54261;46.086;6.588;2023-04-05T16:02:28;92398.63;;;6.35;23.17
67377;BME280;54261;46.086;6.588;2023-04-05T16:07:32;92406.22;;;6.89;25.35
67377;BME280;54261;46.086;6.588;2023-04-05T16:12:34;92398.56;;;8.03;23.30
67377;BME280;54261;46.086;6.588;2023-04-05T16:17:35;92397.47;;;6.56;23.61
67377;BME280;54261;46.086;6.588;2023-04-05T16:22:38;92395.91;;;5.88;26.03
67377;BME280;54261;46.086;6.588;2023-04-05T16:27:40;92406.09;;;6.19;24.50
67377;BME280;54261;46.086;6.588;2023-04-05T16:32:43;92410.88;;;5.46;25.67
67377;BME280;54261;46.086;6.588;2023-04-05T16:37:45;92403.38;;;4.55;26.42
67377;BME280;54261;46.086;6.588;2023-04-05T16:42:47;92398.81;;;6.25;25.82
67377;BME280;54261;46.086;6.588;2023-04-05T16:47:49;92411.44;;;4.99;26.10
67377;BME280;54261;46.086;6.588;2023-04-05T16:52:51;92412.47;;;6.51;25.03
67377;BME280;54261;46.086;6.588;2023-04-05T16:57:53;92415.97;;;6.00;26.75
67377;BME280;54261;46.086;6.588;2023-04-05T17:02:57;92416.13;;;6.89;25.86
67377;BME280;54261;46.086;6.588;2023-04-05T17:07:59;92419.06;;;6.07;25.78
67377;BME280;54261;46.086;6.588;2023-04-05T17:13:01;92426.41;;;6.48;27.11
67377;BME280;54261;46.086;6.588;2023-04-05T17:18:03;92435.28;;;7.61;25.77
67377;BME280;54261;46.086;6.588;2023-04-05T17:23:06;92433.25;;;6.02;28.39
67377;BME280;54261;46.086;6.588;2023-04-05T17:28:08;92438.78;;;4.75;29.47
67377;BME280;54261;46.086;6.588;2023-04-05T17:33:10;92432.44;;;6.21;27.95
67377;BME280;54261;46.086;6.588;2023-04-05T17:38:12;92434.06;;;4.42;30.02
67377;BME280;54261;46.086;6.588;2023-04-05T17:43:14;92437.06;;;5.14;27.31
67377;BME280;54261;46.086;6.588;2023-04-05T17:48:16;92435.81;;;5.31;28.38
67377;BME280;54261;46.086;6.588;2023-04-05T17:53:19;92446.22;;;6.09;26.65
67377;BME280;54261;46.086;6.588;2023-04-05T17:58:21;92443.81;;;6.27;26.88
67377;BME280;54261;46.086;6.588;2023-04-05T18:03:24;92445.94;;;6.10;27.17
67377;BME280;54261;46.086;6.588;2023-04-05T18:08:26;92452.56;;;6.46;26.24
67377;BME280;54261;46.086;6.588;2023-04-05T18:13:29;92462.34;;;6.84;25.52
67377;BME280;54261;46.086;6.588;2023-04-05T18:18:31;92467.19;;;5.96;26.62
67377;BME280;54261;46.086;6.588;2023-04-05T18:23:33;92469.94;;;6.44;25.17
67377;BME280;54261;46.086;6.588;2023-04-05T18:28:35;92467.19;;;6.96;25.35
67377;BME280;54261;46.086;6.588;2023-04-05T18:33:37;92491.63;;;7.87;24.72
67377;BME280;54261;46.086;6.588;2023-04-05T18:38:41;92492.69;;;6.55;26.02
67377;BME280;54261;46.086;6.588;2023-04-05T18:43:43;92495.19;;;6.13;26.08
67377;BME280;54261;46.086;6.588;2023-04-05T18:48:45;92508.72;;;6.36;26.37
67377;BME280;54261;46.086;6.588;2023-04-05T18:53:47;92513.69;;;6.23;25.45
67377;BME280;54261;46.086;6.588;2023-04-05T18:58:49;92516.34;;;6.23;25.99
67377;BME280;54261;46.086;6.588;2023-04-05T19:03:51;92510.94;;;7.56;25.31
67377;BME280;54261;46.086;6.588;2023-04-05T19:08:53;92512.13;;;8.29;25.14
67377;BME280;54261;46.086;6.588;2023-04-05T19:13:55;92525.16;;;8.44;24.72
67377;BME280;54261;46.086;6.588;2023-04-05T19:18:57;92536.66;;;8.90;23.91
67377;BME280;54261;46.086;6.588;2023-04-05T19:23:59;92539.13;;;8.41;26.04
67377;BME280;54261;46.086;6.588;2023-04-05T19:29:01;92539.53;;;7.98;25.15
67377;BME280;54261;46.086;6.588;2023-04-05T19:34:05;92544.84;;;7.28;26.85
67377;BME280;54261;46.086;6.588;2023-04-05T19:39:09;92553.19;;;8.10;26.02
67377;BME280;54261;46.086;6.588;2023-04-05T19:44:11;92551.69;;;8.18;27.22
67377;BME280;54261;46.086;6.588;2023-04-05T19:49:28;92560.00;;;7.74;26.60
67377;BME280;54261;46.086;6.588;2023-04-05T19:54:37;92533.50;;;8.43;24.59
67377;BME280;54261;46.086;6.588;2023-04-05T19:59:39;92562.78;;;7.97;24.60
67377;BME280;54261;46.086;6.588;2023-04-05T20:04:43;92578.06;;;8.47;24.26
67377;BME280;54261;46.086;6.588;2023-04-05T20:09:45;92577.81;;;8.58;23.58
67377;BME280;54261;46.086;6.588;2023-04-05T20:14:47;92572.94;;;8.37;24.02
67377;BME280;54261;46.086;6.588;2023-04-05T20:19:56;92584.47;;;6.87;27.56
67377;BME280;54261;46.086;6.588;2023-04-05T20:25:36;92575.63;;;7.25;26.23
67377;BME280;54261;46.086;6.588;2023-04-05T20:30:38;92563.84;;;6.93;26.05
67377;BME280;54261;46.086;6.588;2023-04-05T20:35:41;92574.03;;;6.52;26.81
67377;BME280;54261;46.086;6.588;2023-04-05T20:40:43;92574.84;;;6.53;28.66
67377;BME280;54261;46.086;6.588;2023-04-05T20:45:45;92577.66;;;7.14;27.90
67377;BME280;54261;46.086;6.588;2023-04-05T20:50:47;92580.63;;;7.13;27.71
67377;BME280;54261;46.086;6.588;2023-04-05T20:55:49;92585.88;;;6.65;29.06
67377;BME280;54261;46.086;6.588;2023-04-05T21:00:51;92584.16;;;5.93;29.46
67377;BME280;54261;46.086;6.588;2023-04-05T21:05:53;92588.75;;;6.31;28.42
67377;BME280;54261;46.086;6.588;2023-04-05T21:10:56;92593.66;;;5.56;29.77
67377;BME280;54261;46.086;6.588;2023-04-05T21:15:58;92591.78;;;6.43;29.11
67377;BME280;54261;46.086;6.588;2023-04-05T21:21:00;92589.66;;;6.02;29.76
67377;BME280;54261;46.086;6.588;2023-04-05T21:26:02;92593.50;;;6.34;28.71
67377;BME280;54261;46.086;6.588;2023-04-05T21:31:05;92594.81;;;6.17;28.46
67377;BME280;54261;46.086;6.588;2023-04-05T21:36:07;92599.34;;;6.17;28.60
67377;BME280;54261;46.086;6.588;2023-04-05T21:41:09;92598.41;;;6.65;27.54
67377;BME280;54261;46.086;6.588;2023-04-05T21:46:11;92582.34;;;5.39;29.33
67377;BME280;54261;46.086;6.588;2023-04-05T21:51:13;92606.47;;;5.78;29.52
67377;BME280;54261;46.086;6.588;2023-04-05T21:56:15;92596.06;;;5.27;29.82
67377;BME280;54261;46.086;6.588;2023-04-05T22:01:17;92607.19;;;5.59;29.76
67377;BME280;54261;46.086;6.588;2023-04-05T22:06:19;92613.69;;;5.96;28.18
67377;BME280;54261;46.086;6.588;2023-04-05T22:11:21;92606.53;;;6.16;27.96
67377;BME280;54261;46.086;6.588;2023-04-05T22:16:25;92577.84;;;5.10;29.26
67377;BME280;54261;46.086;6.588;2023-04-05T22:21:46;92613.03;;;5.61;28.87
67377;BME280;54261;46.086;6.588;2023-04-05T22:26:48;92589.25;;;5.40;29.48
67377;BME280;54261;46.086;6.588;2023-04-05T22:31:52;92611.16;;;3.57;32.68
67377;BME280;54261;46.086;6.588;2023-04-05T22:36:54;92604.47;;;5.05;31.19
67377;BME280;54261;46.086;6.588;2023-04-05T22:41:56;92593.66;;;5.26;31.11
67377;BME280;54261;46.086;6.588;2023-04-05T22:46:58;92611.84;;;4.44;31.93
67377;BME280;54261;46.086;6.588;2023-04-05T22:52:00;92610.69;;;4.95;31.41
67377;BME280;54261;46.086;6.588;2023-04-05T22:57:02;92597.41;;;5.25;31.02
67377;BME280;54261;46.086;6.588;2023-04-05T23:02:04;92614.56;;;5.38;30.26
67377;BME280;54261;46.086;6.588;2023-04-05T23:07:06;92614.66;;;4.18;32.44
67377;BME280;54261;46.086;6.588;2023-04-05T23:12:07;92608.38;;;4.83;32.10
67377;BME280;54261;46.086;6.588;2023-04-05T23:17:11;92613.47;;;4.40;32.15
67377;BME280;54261;46.086;6.588;2023-04-05T23:22:13;92609.72;;;4.46;32.92
67377;BME280;54261;46.086;6.588;2023-04-05T23:27:15;92608.94;;;4.46;31.70
67377;BME280;54261;46.086;6.588;2023-04-05T23:32:17;92607.19;;;4.20;32.08
67377;BME280;54261;46.086;6.588;2023-04-05T23:37:19;92614.28;;;4.80;31.52
67377;BME280;54261;46.086;6.588;2023-04-05T23:42:21;92617.97;;;4.84;30.86
67377;BME280;54261;46.086;6.588;2023-04-05T23:47:22;92614.41;;;4.60;31.78
67377;BME280;54261;46.086;6.588;2023-04-05T23:52:24;92604.69;;;4.39;31.74
67377;BME280;54261;46.086;6.588;2023-04-05T23:57:26;92612.19;;;3.66;32.86
